Time;durP1;ratioP1;P1;durP2;ratioP2;P2;SDS_P1;SDS_P2;PMS_P1;PMS_P2;Temp;Humidity;BMP_temperature;BMP_pressure;BME280_temperature;BME280_humidity;BME280_pressure;Samples;Min_cycle;Max_cycle;Signal;HPM_P1;HPM_P2
2021/11/30 00:02:00;;;;;;;9.95;7.57;;;;;;;;;;4984654;28;20568;-65
2021/11/30 00:04:30;;;;;;;9.02;6.15;;;;;;;;;;4982166;28;20050;-65
2021/11/30 00:06:58;;;;;;;11.15;6.80;;;;;;;;;;4982725;28;20054;-65
2021/11/30 00:12:04;;;;;;;10.18;6.65;;;;;;;;;;4998782;28;20060;-65
2021/11/30 00:14:31;;;;;;;9.85;6.22;;;;;;;;;;4998320;28;20050;-65
2021/11/30 00:16:58;;;;;;;8.45;6.20;;;;;;;;;;4998504;28;20046;-65
2021/11/30 00:19:25;;;;;;;8.75;6.80;;;;;;;;;;4997901;28;20493;-65
2021/11/30 00:21:52;;;;;;;8.98;6.95;;;;;;;;;;4988184;28;20051;-65
2021/11/30 00:24:18;;;;;;;9.25;6.35;;;;;;;;;;4978953;28;20050;-65
2021/11/30 00:26:45;;;;;;;13.65;6.28;;;;;;;;;;4979041;28;20055;-65
2021/11/30 00:29:12;;;;;;;7.97;6.20;;;;;;;;;;4983509;28;20042;-65
2021/11/30 00:31:38;;;;;;;12.68;7.13;;;;;;;;;;4998348;28;20058;-65
2021/11/30 00:34:05;;;;;;;9.82;6.28;;;;;;;;;;4998453;28;20050;-65
2021/11/30 00:36:32;;;;;;;9.73;6.25;;;;;;;;;;4982912;28;20050;-65
2021/11/30 00:38:59;;;;;;;10.40;6.00;;;;;;;;;;4997834;28;20065;-65
2021/11/30 00:41:25;;;;;;;14.13;6.55;;;;;;;;;;4998260;28;20054;-65
2021/11/30 00:43:54;;;;;;;8.00;6.65;;;;;;;;;;4998104;28;20054;-65
2021/11/30 00:46:36;;;;;;;9.02;6.60;;;;;;;;;;4996041;28;20058;-66
2021/11/30 00:49:05;;;;;;;8.20;5.85;;;;;;;;;;4978793;28;20057;-65
2021/11/30 00:51:35;;;;;;;8.38;5.57;;;;;;;;;;4977548;28;20109;-65
2021/11/30 00:54:03;;;;;;;8.38;5.82;;;;;;;;;;4978604;28;20059;-65
2021/11/30 00:56:29;;;;;;;9.57;5.80;;;;;;;;;;4986668;28;20486;-65
2021/11/30 00:58:56;;;;;;;6.53;5.38;;;;;;;;;;4995182;28;20046;-65
2021/11/30 01:01:22;;;;;;;9.35;5.13;;;;;;;;;;4990399;28;20107;-66
2021/11/30 01:03:49;;;;;;;8.23;5.35;;;;;;;;;;4986892;28;20050;-66
2021/11/30 01:06:16;;;;;;;8.10;5.50;;;;;;;;;;4985864;28;20055;-65
2021/11/30 01:08:42;;;;;;;9.60;5.13;;;;;;;;;;4975271;28;20564;-66
2021/11/30 01:11:09;;;;;;;11.27;6.03;;;;;;;;;;4975795;28;20130;-66
2021/11/30 01:13:35;;;;;;;6.55;5.55;;;;;;;;;;4975320;28;20069;-65
2021/11/30 01:16:03;;;;;;;7.20;5.03;;;;;;;;;;4975509;28;20051;-65
2021/11/30 01:18:30;;;;;;;9.13;5.72;;;;;;;;;;4990183;28;20457;-66
2021/11/30 01:20:56;;;;;;;12.90;7.35;;;;;;;;;;4994805;28;20054;-65
2021/11/30 01:23:26;;;;;;;9.05;5.80;;;;;;;;;;4993992;28;20054;-66
2021/11/30 01:25:52;;;;;;;8.68;6.15;;;;;;;;;;4994572;28;20101;-65
2021/11/30 01:28:19;;;;;;;7.97;5.35;;;;;;;;;;4994646;28;20097;-65
2021/11/30 01:30:45;;;;;;;15.23;7.30;;;;;;;;;;4992644;28;20038;-65
2021/11/30 01:33:12;;;;;;;8.50;5.72;;;;;;;;;;4994446;28;20050;-66
2021/11/30 01:35:42;;;;;;;7.72;5.35;;;;;;;;;;4987675;28;20046;-65
2021/11/30 01:38:09;;;;;;;11.23;5.30;;;;;;;;;;4994380;28;20046;-66
2021/11/30 01:40:35;;;;;;;7.20;5.75;;;;;;;;;;4980919;28;20391;-65
2021/11/30 01:43:05;;;;;;;8.82;5.88;;;;;;;;;;4975106;28;20054;-65
2021/11/30 01:45:56;;;;;;;9.80;5.22;;;;;;;;;;4982190;28;20088;-65
2021/11/30 01:50:55;;;;;;;7.10;5.57;;;;;;;;;;4974947;28;20474;-65
2021/11/30 01:53:22;;;;;;;10.73;6.28;;;;;;;;;;4988074;28;20098;-64
2021/11/30 01:55:49;;;;;;;13.88;5.43;;;;;;;;;;4986714;28;20105;-65
2021/11/30 01:58:16;;;;;;;11.25;5.55;;;;;;;;;;4966740;28;20050;-65
2021/11/30 02:00:44;;;;;;;9.00;5.07;;;;;;;;;;4989101;28;20442;-65
2021/11/30 02:03:11;;;;;;;6.63;5.13;;;;;;;;;;4974429;28;20086;-65
2021/11/30 02:05:40;;;;;;;8.10;4.60;;;;;;;;;;4974438;28;20106;-65
2021/11/30 02:08:08;;;;;;;6.50;4.47;;;;;;;;;;4974186;28;20101;-65
2021/11/30 02:10:35;;;;;;;5.85;4.35;;;;;;;;;;4973351;28;20465;-65
2021/11/30 02:13:03;;;;;;;7.68;4.82;;;;;;;;;;4974272;28;20050;-65
2021/11/30 02:15:29;;;;;;;5.82;4.55;;;;;;;;;;4982667;28;20050;-65
2021/11/30 02:17:58;;;;;;;5.45;4.43;;;;;;;;;;4991444;28;20054;-65
2021/11/30 02:20:25;;;;;;;6.22;4.63;;;;;;;;;;4993520;28;20050;-65
2021/11/30 02:22:56;;;;;;;6.88;4.28;;;;;;;;;;4993212;28;20050;-65
2021/11/30 02:25:23;;;;;;;6.05;3.70;;;;;;;;;;4993562;28;20461;-65
2021/11/30 02:27:52;;;;;;;7.50;4.07;;;;;;;;;;4992800;28;20054;-65
2021/11/30 02:30:19;;;;;;;7.40;4.15;;;;;;;;;;4993392;28;20042;-65
2021/11/30 02:32:46;;;;;;;6.53;4.00;;;;;;;;;;4983512;28;20047;-65
2021/11/30 02:35:15;;;;;;;4.65;3.97;;;;;;;;;;4976303;28;20054;-65
2021/11/30 02:37:49;;;;;;;7.68;3.90;;;;;;;;;;4993095;28;20056;-65
2021/11/30 02:40:16;;;;;;;5.28;3.88;;;;;;;;;;4993186;28;20049;-66
2021/11/30 02:42:43;;;;;;;8.25;3.20;;;;;;;;;;4992985;28;20522;-65
2021/11/30 02:45:10;;;;;;;5.22;3.13;;;;;;;;;;4993481;28;20050;-65
2021/11/30 02:47:36;;;;;;;5.15;3.22;;;;;;;;;;4992932;28;20054;-65
2021/11/30 02:50:03;;;;;;;6.43;3.00;;;;;;;;;;4992996;28;20104;-65
2021/11/30 02:52:30;;;;;;;7.70;3.15;;;;;;;;;;4990200;28;20100;-65
2021/11/30 02:54:57;;;;;;;10.10;3.00;;;;;;;;;;4973563;28;20122;-65
2021/11/30 02:57:24;;;;;;;4.95;2.63;;;;;;;;;;4989173;28;20113;-65
2021/11/30 02:59:53;;;;;;;5.85;2.60;;;;;;;;;;4992614;28;20077;-65
2021/11/30 03:02:23;;;;;;;4.38;3.20;;;;;;;;;;4979868;28;20101;-65
2021/11/30 03:04:53;;;;;;;5.53;2.75;;;;;;;;;;4984478;28;20137;-65
2021/11/30 03:07:25;;;;;;;3.45;2.35;;;;;;;;;;4985466;28;20124;-65
2021/11/30 03:09:53;;;;;;;4.27;2.13;;;;;;;;;;4992473;28;20089;-65
2021/11/30 03:12:20;;;;;;;3.53;2.30;;;;;;;;;;4992864;28;20107;-65
2021/11/30 03:14:47;;;;;;;4.55;2.17;;;;;;;;;;4980799;28;20051;-65
2021/11/30 03:17:13;;;;;;;3.42;2.05;;;;;;;;;;4971764;28;20470;-66
2021/11/30 03:19:40;;;;;;;2.70;1.80;;;;;;;;;;4972930;28;20568;-65
2021/11/30 03:22:07;;;;;;;2.47;1.85;;;;;;;;;;4972967;28;20058;-65
2021/11/30 03:24:34;;;;;;;4.03;1.90;;;;;;;;;;4996322;23;20101;-68
2021/11/30 03:27:01;;;;;;;7.32;2.25;;;;;;;;;;4974611;28;20050;-68
2021/11/30 03:29:28;;;;;;;3.30;2.10;;;;;;;;;;4973361;28;20047;-69
2021/11/30 03:32:08;;;;;;;4.25;2.20;;;;;;;;;;4976690;28;20556;-68
2021/11/30 03:34:35;;;;;;;5.07;2.95;;;;;;;;;;4973169;28;20082;-68
2021/11/30 03:37:04;;;;;;;4.20;1.48;;;;;;;;;;4985437;28;20505;-69
2021/11/30 03:39:31;;;;;;;3.88;1.83;;;;;;;;;;4992669;28;20334;-68
2021/11/30 03:41:59;;;;;;;3.13;1.65;;;;;;;;;;4991944;28;20042;-68
2021/11/30 03:44:26;;;;;;;6.22;1.48;;;;;;;;;;4992450;28;20057;-68
2021/11/30 03:46:53;;;;;;;2.55;1.38;;;;;;;;;;4986586;28;20058;-68
2021/11/30 03:49:20;;;;;;;3.00;1.80;;;;;;;;;;4992835;28;20050;-65
2021/11/30 03:51:47;;;;;;;7.32;1.83;;;;;;;;;;4982030;28;20050;-66
2021/11/30 03:54:15;;;;;;;5.88;1.65;;;;;;;;;;4985895;28;20055;-65
2021/11/30 03:56:42;;;;;;;2.25;1.77;;;;;;;;;;4973280;28;20051;-65
2021/11/30 03:59:11;;;;;;;3.38;1.45;;;;;;;;;;4973065;28;20047;-66
2021/11/30 04:01:37;;;;;;;2.05;1.65;;;;;;;;;;4980115;28;20089;-68
2021/11/30 04:04:24;;;;;;;3.20;1.63;;;;;;;;;;4992323;28;20112;-66
2021/11/30 04:06:53;;;;;;;6.32;1.90;;;;;;;;;;4991935;28;20089;-66
2021/11/30 04:09:19;;;;;;;3.10;1.52;;;;;;;;;;4992172;28;20124;-66
2021/11/30 04:11:47;;;;;;;4.38;1.85;;;;;;;;;;4992152;28;20058;-66
2021/11/30 04:14:14;;;;;;;3.35;1.70;;;;;;;;;;4992067;28;20124;-67
2021/11/30 04:16:41;;;;;;;3.33;1.63;;;;;;;;;;4991561;28;20493;-66
2021/11/30 04:19:08;;;;;;;5.18;2.17;;;;;;;;;;4992316;28;20141;-67
2021/11/30 04:21:35;;;;;;;3.50;1.85;;;;;;;;;;4977503;28;20469;-66
2021/11/30 04:24:02;;;;;;;2.60;1.40;;;;;;;;;;4972481;28;20078;-66
2021/11/30 04:26:29;;;;;;;3.60;1.98;;;;;;;;;;4971259;28;20050;-67
2021/11/30 04:28:56;;;;;;;2.90;1.55;;;;;;;;;;4972624;28;20050;-67
2021/11/30 04:31:23;;;;;;;3.22;1.50;;;;;;;;;;4972536;28;20553;-67
2021/11/30 04:33:49;;;;;;;5.47;1.50;;;;;;;;;;4973860;28;20078;-66
2021/11/30 04:36:16;;;;;;;3.42;1.50;;;;;;;;;;4979844;28;20051;-67
2021/11/30 04:38:43;;;;;;;4.72;1.80;;;;;;;;;;4976012;28;20051;-66
2021/11/30 04:41:09;;;;;;;1.77;1.27;;;;;;;;;;4976124;28;20106;-67
2021/11/30 04:43:36;;;;;;;4.63;1.55;;;;;;;;;;4976267;28;20058;-67
2021/11/30 04:46:20;;;;;;;3.85;1.90;;;;;;;;;;4975969;28;20055;-67
2021/11/30 04:48:56;;;;;;;2.83;1.80;;;;;;;;;;4975874;28;20055;-66
2021/11/30 04:51:28;;;;;;;4.85;2.13;;;;;;;;;;4975946;28;20102;-66
2021/11/30 04:53:54;;;;;;;2.13;1.60;;;;;;;;;;4985622;28;20054;-66
2021/11/30 04:56:21;;;;;;;2.53;2.25;;;;;;;;;;4995599;28;20437;-66
2021/11/30 04:58:47;;;;;;;2.80;1.55;;;;;;;;;;4995204;28;20096;-66
2021/11/30 05:01:17;;;;;;;6.18;2.03;;;;;;;;;;4990254;28;20059;-66
2021/11/30 05:03:44;;;;;;;4.20;1.90;;;;;;;;;;4990205;28;20050;-66
2021/11/30 05:06:12;;;;;;;6.95;1.90;;;;;;;;;;4995151;28;20050;-66
2021/11/30 05:08:40;;;;;;;5.30;1.92;;;;;;;;;;4995022;28;20449;-66
2021/11/30 05:11:07;;;;;;;4.25;2.22;;;;;;;;;;4995091;28;20046;-66
2021/11/30 05:13:34;;;;;;;4.32;2.10;;;;;;;;;;4976755;28;20066;-66
2021/11/30 05:16:00;;;;;;;2.95;1.98;;;;;;;;;;4975689;28;20054;-66
2021/11/30 05:18:27;;;;;;;3.03;1.70;;;;;;;;;;4975506;28;20057;-66
2021/11/30 05:20:54;;;;;;;4.00;2.10;;;;;;;;;;4975315;28;20782;-66
2021/11/30 05:23:27;;;;;;;5.75;1.77;;;;;;;;;;4975182;28;20465;-67
2021/11/30 05:26:04;;;;;;;7.70;2.58;;;;;;;;;;4980847;28;20116;-66
2021/11/30 05:28:31;;;;;;;3.88;2.10;;;;;;;;;;4994901;28;20093;-66
2021/11/30 05:30:58;;;;;;;5.25;1.90;;;;;;;;;;4994767;28;20508;-66
2021/11/30 05:33:25;;;;;;;3.42;2.20;;;;;;;;;;4994647;28;20109;-66
2021/11/30 05:35:52;;;;;;;3.92;2.95;;;;;;;;;;4994690;28;20086;-66
2021/11/30 05:38:18;;;;;;;4.05;2.30;;;;;;;;;;4986184;28;20051;-66
2021/11/30 05:40:45;;;;;;;2.50;1.65;;;;;;;;;;4974874;28;20046;-66
2021/11/30 05:43:12;;;;;;;3.97;2.05;;;;;;;;;;4974835;28;20051;-66
2021/11/30 05:45:39;;;;;;;3.72;2.40;;;;;;;;;;4974728;28;20051;-66
2021/11/30 05:48:07;;;;;;;2.60;1.92;;;;;;;;;;4975038;28;20046;-66
2021/11/30 05:50:34;;;;;;;4.82;2.80;;;;;;;;;;4975073;28;20050;-66
2021/11/30 05:53:00;;;;;;;6.00;2.35;;;;;;;;;;4974804;28;20399;-66
2021/11/30 05:55:27;;;;;;;6.38;3.72;;;;;;;;;;4974745;28;20055;-65
2021/11/30 05:57:54;;;;;;;6.68;3.42;;;;;;;;;;4974669;28;20568;-66
2021/11/30 06:00:20;;;;;;;5.13;3.30;;;;;;;;;;4974622;28;20043;-66
2021/11/30 06:05:18;;;;;;;2.67;2.47;;;;;;;;;;4974564;28;20050;-66
2021/11/30 06:07:44;;;;;;;3.17;2.50;;;;;;;;;;4974539;28;20055;-67
2021/11/30 06:10:11;;;;;;;4.60;2.70;;;;;;;;;;4974674;28;20054;-66
2021/11/30 06:12:38;;;;;;;4.90;2.92;;;;;;;;;;4974382;28;20105;-66
2021/11/30 06:15:05;;;;;;;4.53;2.72;;;;;;;;;;4974831;28;20078;-66
2021/11/30 06:17:31;;;;;;;5.40;3.15;;;;;;;;;;4974260;28;20109;-67
2021/11/30 06:19:59;;;;;;;3.28;2.75;;;;;;;;;;4974335;28;20047;-66
2021/11/30 06:22:26;;;;;;;3.25;2.53;;;;;;;;;;4974266;28;20054;-66
2021/11/30 06:24:52;;;;;;;4.68;3.00;;;;;;;;;;4973880;28;20469;-66
2021/11/30 06:27:19;;;;;;;4.40;3.30;;;;;;;;;;4974272;28;20050;-67
2021/11/30 06:29:45;;;;;;;5.07;3.45;;;;;;;;;;4974121;28;20591;-66
2021/11/30 06:32:12;;;;;;;3.90;3.10;;;;;;;;;;4973954;28;20490;-66
2021/11/30 06:34:39;;;;;;;8.50;3.40;;;;;;;;;;4982603;28;20105;-66
2021/11/30 06:37:08;;;;;;;4.70;3.55;;;;;;;;;;4993640;28;20050;-68
2021/11/30 06:39:35;;;;;;;4.20;3.35;;;;;;;;;;4993380;28;20116;-66
2021/11/30 06:42:03;;;;;;;5.88;3.83;;;;;;;;;;4993305;28;20096;-69
2021/11/30 06:44:32;;;;;;;6.25;3.90;;;;;;;;;;4990819;28;20050;-68
2021/11/30 06:46:58;;;;;;;4.80;4.03;;;;;;;;;;4962822;28;20102;-67
2021/11/30 06:49:25;;;;;;;7.85;4.13;;;;;;;;;;4977126;28;20402;-67
2021/11/30 06:51:52;;;;;;;7.30;4.68;;;;;;;;;;4979654;28;20360;-67
2021/11/30 06:54:18;;;;;;;5.18;4.13;;;;;;;;;;4979561;28;20571;-67
2021/11/30 06:56:45;;;;;;;5.15;4.05;;;;;;;;;;4978199;28;20464;-67
2021/11/30 06:59:12;;;;;;;8.40;4.55;;;;;;;;;;4976517;28;20110;-67
2021/11/30 07:01:39;;;;;;;7.18;4.53;;;;;;;;;;4978020;28;20089;-66
2021/11/30 07:04:06;;;;;;;7.57;4.57;;;;;;;;;;4980792;28;20051;-67
2021/11/30 07:14:13;;;;;;;5.10;3.72;;;;;;;;;;4964104;28;20461;-66
2021/11/30 07:16:39;;;;;;;6.28;4.53;;;;;;;;;;4969399;28;20398;-67
2021/11/30 07:19:11;;;;;;;6.65;4.10;;;;;;;;;;4977866;28;20132;-66
2021/11/30 07:21:38;;;;;;;6.45;3.80;;;;;;;;;;4979257;28;20054;-67
2021/11/30 07:24:05;;;;;;;7.38;3.40;;;;;;;;;;4976375;28;20145;-66
2021/11/30 07:26:32;;;;;;;5.80;4.15;;;;;;;;;;4976627;28;20082;-66
2021/11/30 07:28:59;;;;;;;7.32;4.57;;;;;;;;;;4980239;28;20108;-66
2021/11/30 07:31:27;;;;;;;4.28;3.33;;;;;;;;;;4977710;28;20046;-68
2021/11/30 07:33:54;;;;;;;6.45;3.97;;;;;;;;;;4983959;28;20140;-65
2021/11/30 07:36:20;;;;;;;5.30;3.47;;;;;;;;;;4982603;28;20054;-64
2021/11/30 07:38:48;;;;;;;6.78;3.08;;;;;;;;;;4981187;28;20054;-64
2021/11/30 07:41:15;;;;;;;6.22;3.25;;;;;;;;;;4979651;28;20074;-66
2021/11/30 07:43:42;;;;;;;5.18;3.70;;;;;;;;;;4980597;28;20058;-66
2021/11/30 07:46:09;;;;;;;5.75;3.05;;;;;;;;;;4981351;28;20466;-69
2021/11/30 07:48:35;;;;;;;6.65;3.22;;;;;;;;;;4980471;28;20097;-66
2021/11/30 07:51:04;;;;;;;5.93;3.47;;;;;;;;;;4978137;28;20097;-66
2021/11/30 07:53:30;;;;;;;3.90;2.53;;;;;;;;;;4978609;28;20042;-66
2021/11/30 07:55:57;;;;;;;5.40;3.75;;;;;;;;;;4980273;28;20058;-66
2021/11/30 07:58:24;;;;;;;5.22;3.42;;;;;;;;;;4978978;28;20504;-66
2021/11/30 08:00:51;;;;;;;5.47;3.13;;;;;;;;;;4980243;28;20046;-66
2021/11/30 08:03:18;;;;;;;6.53;2.70;;;;;;;;;;4975731;28;20061;-67
2021/11/30 08:05:45;;;;;;;4.00;2.72;;;;;;;;;;4978893;28;20089;-66
2021/11/30 08:08:11;;;;;;;3.17;2.22;;;;;;;;;;4982915;28;20051;-66
2021/11/30 08:10:38;;;;;;;3.80;2.45;;;;;;;;;;4984666;28;20046;-67
2021/11/30 08:13:05;;;;;;;4.22;2.30;;;;;;;;;;4984531;28;20535;-67
2021/11/30 08:15:32;;;;;;;4.60;2.30;;;;;;;;;;4984246;28;20105;-66
2021/11/30 08:18:00;;;;;;;4.22;2.00;;;;;;;;;;4967175;28;20050;-67
2021/11/30 08:20:27;;;;;;;2.50;2.03;;;;;;;;;;4985138;28;20556;-68
2021/11/30 08:22:54;;;;;;;2.80;2.10;;;;;;;;;;4982838;28;20078;-68
2021/11/30 08:25:20;;;;;;;3.97;1.98;;;;;;;;;;4984147;28;20469;-69
2021/11/30 08:27:47;;;;;;;3.88;2.25;;;;;;;;;;4983933;28;20054;-69
2021/11/30 08:30:25;;;;;;;4.53;2.03;;;;;;;;;;4985301;28;20077;-68
2021/11/30 08:32:54;;;;;;;2.72;2.08;;;;;;;;;;4987006;28;20509;-68
2021/11/30 08:35:21;;;;;;;3.72;2.20;;;;;;;;;;4984690;28;20113;-68
2021/11/30 08:37:47;;;;;;;4.47;2.40;;;;;;;;;;4986308;28;20092;-69
2021/11/30 08:40:14;;;;;;;3.20;1.90;;;;;;;;;;4984326;28;20051;-69
2021/11/30 08:42:41;;;;;;;4.05;2.10;;;;;;;;;;4982972;28;20058;-68
2021/11/30 08:45:08;;;;;;;3.15;2.08;;;;;;;;;;4980837;28;20055;-67
2021/11/30 08:47:36;;;;;;;5.53;2.17;;;;;;;;;;4984086;28;20053;-67
2021/11/30 08:50:09;;;;;;;3.00;2.63;;;;;;;;;;4984179;28;20053;-65
2021/11/30 08:52:36;;;;;;;6.15;2.90;;;;;;;;;;4985483;28;20054;-65
2021/11/30 08:55:04;;;;;;;3.60;2.72;;;;;;;;;;4985261;28;20042;-67
2021/11/30 08:57:31;;;;;;;12.90;3.00;;;;;;;;;;4985106;28;20051;-65
2021/11/30 08:59:57;;;;;;;3.38;2.58;;;;;;;;;;4983832;28;20051;-67
2021/11/30 09:02:24;;;;;;;3.70;2.50;;;;;;;;;;4985530;28;20457;-65
2021/11/30 09:04:52;;;;;;;4.32;2.30;;;;;;;;;;4985809;28;20501;-67
2021/11/30 09:07:18;;;;;;;2.92;2.15;;;;;;;;;;4983821;28;20046;-67
2021/11/30 09:09:47;;;;;;;2.63;1.95;;;;;;;;;;4984339;28;20055;-66
2021/11/30 09:12:15;;;;;;;5.30;2.20;;;;;;;;;;4986911;28;20054;-66
2021/11/30 09:14:41;;;;;;;3.10;2.33;;;;;;;;;;4985129;28;20100;-67
2021/11/30 09:17:08;;;;;;;3.97;2.42;;;;;;;;;;4984127;28;20046;-66
2021/11/30 09:19:35;;;;;;;3.55;2.00;;;;;;;;;;4980781;28;20081;-65
2021/11/30 09:22:06;;;;;;;5.13;2.53;;;;;;;;;;4980245;28;20130;-66
2021/11/30 09:24:33;;;;;;;2.08;1.75;;;;;;;;;;5008279;23;20096;-66
2021/11/30 09:26:59;;;;;;;4.25;2.08;;;;;;;;;;5005973;28;20053;-67
2021/11/30 09:29:26;;;;;;;7.65;2.47;;;;;;;;;;5003778;28;20076;-66
2021/11/30 09:31:53;;;;;;;3.63;2.25;;;;;;;;;;5000604;28;20573;-66
2021/11/30 09:34:20;;;;;;;4.18;2.42;;;;;;;;;;4998988;28;20085;-67
2021/11/30 09:36:48;;;;;;;5.65;2.28;;;;;;;;;;4979764;28;20420;-68
2021/11/30 09:39:15;;;;;;;3.97;2.03;;;;;;;;;;4982916;28;20050;-69
2021/11/30 09:41:43;;;;;;;2.92;1.98;;;;;;;;;;4981937;28;20244;-68
2021/11/30 09:44:10;;;;;;;2.67;1.98;;;;;;;;;;4982468;28;20046;-69
2021/11/30 09:46:38;;;;;;;3.13;2.20;;;;;;;;;;4981590;28;20046;-69
2021/11/30 09:49:07;;;;;;;5.13;1.55;;;;;;;;;;4979965;28;20053;-69
2021/11/30 09:51:33;;;;;;;2.80;1.90;;;;;;;;;;4979053;28;20101;-66
2021/11/30 09:54:02;;;;;;;5.03;2.15;;;;;;;;;;4979443;28;20073;-68
2021/11/30 09:56:28;;;;;;;1.85;1.60;;;;;;;;;;4981793;28;20512;-63
2021/11/30 09:58:55;;;;;;;5.15;1.92;;;;;;;;;;4981054;28;20390;-63
2021/11/30 10:01:22;;;;;;;1.90;1.40;;;;;;;;;;4984928;28;20067;-65
2021/11/30 10:03:49;;;;;;;3.30;1.42;;;;;;;;;;4981263;28;20544;-63
2021/11/30 10:06:16;;;;;;;2.05;1.33;;;;;;;;;;4978854;28;20417;-67
2021/11/30 10:08:45;;;;;;;4.32;1.90;;;;;;;;;;4979634;28;20047;-63
2021/11/30 10:11:31;;;;;;;2.33;1.50;;;;;;;;;;4980654;28;20050;-63
2021/11/30 10:14:23;;;;;;;2.72;1.88;;;;;;;;;;4980822;28;20153;-63
2021/11/30 10:17:11;;;;;;;3.15;1.48;;;;;;;;;;4981041;28;20066;-65
2021/11/30 10:19:45;;;;;;;2.33;2.03;;;;;;;;;;4986373;28;20043;-65
2021/11/30 10:22:11;;;;;;;1.95;1.40;;;;;;;;;;4996704;28;20039;-64
2021/11/30 10:24:38;;;;;;;2.88;1.60;;;;;;;;;;4978417;28;20128;-69
2021/11/30 10:27:05;;;;;;;1.90;1.20;;;;;;;;;;4979134;28;20055;-67
2021/11/30 10:29:41;;;;;;;4.13;2.20;;;;;;;;;;4984377;28;20054;-64
2021/11/30 10:32:08;;;;;;;1.73;1.33;;;;;;;;;;4991155;28;20187;-65
2021/11/30 10:34:34;;;;;;;2.17;1.40;;;;;;;;;;4977887;28;20113;-65
2021/11/30 10:37:04;;;;;;;1.88;1.30;;;;;;;;;;4982700;28;20043;-68
2021/11/30 10:39:33;;;;;;;2.80;1.35;;;;;;;;;;4981699;28;20116;-67
2021/11/30 10:42:13;;;;;;;2.65;1.90;;;;;;;;;;4984090;28;20043;-67
2021/11/30 10:44:40;;;;;;;4.63;2.10;;;;;;;;;;4981439;28;20101;-65
2021/11/30 10:47:14;;;;;;;2.25;1.50;;;;;;;;;;4978454;28;20121;-64
2021/11/30 10:49:48;;;;;;;2.00;1.73;;;;;;;;;;4982065;28;20417;-65
2021/11/30 10:52:21;;;;;;;4.10;2.60;;;;;;;;;;4982334;28;20046;-65
2021/11/30 10:54:50;;;;;;;3.42;1.63;;;;;;;;;;4976279;28;20798;-68
2021/11/30 10:57:16;;;;;;;6.03;2.05;;;;;;;;;;4977950;28;20054;-69
2021/11/30 10:59:46;;;;;;;2.13;1.02;;;;;;;;;;4980773;28;20046;-64
2021/11/30 11:02:13;;;;;;;2.08;1.20;;;;;;;;;;4995033;28;20085;-65
2021/11/30 11:04:40;;;;;;;1.33;0.95;;;;;;;;;;4983102;28;20239;-64
2021/11/30 11:07:12;;;;;;;1.73;1.02;;;;;;;;;;4981663;28;20046;-65
2021/11/30 11:09:44;;;;;;;1.27;1.02;;;;;;;;;;4978915;28;20105;-68
2021/11/30 11:12:11;;;;;;;1.25;0.90;;;;;;;;;;4981195;28;20051;-68
2021/11/30 11:14:46;;;;;;;1.70;1.25;;;;;;;;;;4981100;28;20053;-66
2021/11/30 11:17:28;;;;;;;2.97;1.85;;;;;;;;;;4978212;28;20516;-69
2021/11/30 11:19:55;;;;;;;2.20;1.38;;;;;;;;;;4984338;28;20053;-64
2021/11/30 11:22:24;;;;;;;2.03;1.27;;;;;;;;;;4985959;28;20042;-62
2021/11/30 11:24:52;;;;;;;1.73;1.10;;;;;;;;;;4980510;28;20424;-62
2021/11/30 11:27:45;;;;;;;8.50;2.92;;;;;;;;;;4996825;28;20054;-65
2021/11/30 11:30:13;;;;;;;;;;;;;;;;;;4984468;28;20105;-66
2021/11/30 11:32:40;;;;;;;3.85;1.83;;;;;;;;;;4977669;28;19929;-67
2021/11/30 11:35:07;;;;;;;3.88;2.63;;;;;;;;;;4980694;28;20492;-69
2021/11/30 11:37:34;;;;;;;5.22;2.80;;;;;;;;;;4977705;28;20452;-67
2021/11/30 11:40:00;;;;;;;5.90;2.47;;;;;;;;;;4978175;28;20082;-70
2021/11/30 11:42:27;;;;;;;4.63;2.10;;;;;;;;;;4984875;28;20391;-68
2021/11/30 11:44:56;;;;;;;6.53;3.05;;;;;;;;;;4976945;28;20098;-67
2021/11/30 11:47:24;;;;;;;3.63;1.85;;;;;;;;;;4978304;28;20784;-68
2021/11/30 11:49:54;;;;;;;3.60;2.33;;;;;;;;;;4979172;28;20060;-68
2021/11/30 11:52:20;;;;;;;2.28;1.35;;;;;;;;;;4997667;28;20944;-65
2021/11/30 11:55:04;;;;;;;1.52;1.10;;;;;;;;;;4977157;28;20055;-66
2021/11/30 11:57:32;;;;;;;4.15;1.00;;;;;;;;;;4980435;28;20058;-67
2021/11/30 12:00:17;;;;;;;5.97;2.10;;;;;;;;;;4979486;28;20055;-66
2021/11/30 12:02:56;;;;;;;3.40;1.58;;;;;;;;;;4976974;28;20050;-65
2021/11/30 12:05:43;;;;;;;3.30;1.20;;;;;;;;;;4985537;28;20485;-66
2021/11/30 12:08:32;;;;;;;1.10;1.00;;;;;;;;;;4980639;28;20047;-64
2021/11/30 12:11:01;;;;;;;1.23;1.13;;;;;;;;;;4979893;28;20546;-68
2021/11/30 12:13:27;;;;;;;2.33;1.30;;;;;;;;;;4977647;28;20047;-68
2021/11/30 12:16:07;;;;;;;3.70;1.30;;;;;;;;;;4978736;28;20404;-69
2021/11/30 12:18:42;;;;;;;1.00;0.88;;;;;;;;;;4981073;28;20515;-69
2021/11/30 12:21:25;;;;;;;3.47;1.00;;;;;;;;;;4980474;28;20043;-68
2021/11/30 12:24:00;;;;;;;2.08;1.40;;;;;;;;;;4976754;28;20523;-67
2021/11/30 12:26:30;;;;;;;2.10;1.88;;;;;;;;;;4979017;28;20472;-67
2021/11/30 12:28:58;;;;;;;3.03;1.20;;;;;;;;;;4977646;28;20073;-67
2021/11/30 12:31:29;;;;;;;2.83;0.65;;;;;;;;;;4978357;28;20136;-67
2021/11/30 12:33:56;;;;;;;2.38;2.03;;;;;;;;;;4977099;28;20137;-65
2021/11/30 12:36:29;;;;;;;3.08;2.88;;;;;;;;;;4993152;28;20062;-66
2021/11/30 12:38:58;;;;;;;1.75;1.65;;;;;;;;;;4979467;28;20065;-65
2021/11/30 12:41:37;;;;;;;2.58;1.95;;;;;;;;;;4986557;28;20116;-66
2021/11/30 12:44:11;;;;;;;3.45;1.70;;;;;;;;;;4980002;28;20081;-65
2021/11/30 12:46:40;;;;;;;2.70;1.70;;;;;;;;;;4980245;28;20106;-65
2021/11/30 12:49:25;;;;;;;5.40;2.13;;;;;;;;;;4979577;28;20101;-65
2021/11/30 12:52:08;;;;;;;2.60;1.60;;;;;;;;;;4979556;28;20057;-65
2021/11/30 12:54:36;;;;;;;1.63;1.10;;;;;;;;;;4980871;28;20050;-64
2021/11/30 12:57:03;;;;;;;1.48;1.00;;;;;;;;;;4981458;28;20122;-64
2021/11/30 12:59:39;;;;;;;2.45;1.05;;;;;;;;;;4983023;28;20051;-64
2021/11/30 13:02:35;;;;;;;1.60;1.27;;;;;;;;;;4982213;28;20545;-64
2021/11/30 13:05:08;;;;;;;3.63;1.08;;;;;;;;;;4983406;28;20050;-64
2021/11/30 13:07:47;;;;;;;1.02;0.80;;;;;;;;;;4980358;28;20067;-65
2021/11/30 13:10:33;;;;;;;3.25;1.67;;;;;;;;;;4979953;28;20054;-64
2021/11/30 13:13:05;;;;;;;1.98;0.90;;;;;;;;;;4997477;28;20186;-64
2021/11/30 13:15:32;;;;;;;1.73;1.40;;;;;;;;;;4982445;28;20098;-64
2021/11/30 13:18:02;;;;;;;2.78;1.92;;;;;;;;;;4980257;28;20079;-64
2021/11/30 13:20:30;;;;;;;1.52;1.10;;;;;;;;;;4985691;28;20578;-64
2021/11/30 13:22:57;;;;;;;3.50;2.05;;;;;;;;;;4980285;28;20079;-64
2021/11/30 13:25:34;;;;;;;3.00;1.17;;;;;;;;;;4983290;28;20097;-64
2021/11/30 13:28:07;;;;;;;1.27;0.52;;;;;;;;;;4981282;28;20547;-64
2021/11/30 13:30:35;;;;;;;1.42;1.33;;;;;;;;;;4984836;28;20054;-64
2021/11/30 13:33:10;;;;;;;1.27;0.77;;;;;;;;;;4984064;28;20564;-64
2021/11/30 13:35:42;;;;;;;1.50;1.05;;;;;;;;;;4980278;28;20051;-64
2021/11/30 13:38:17;;;;;;;1.95;1.10;;;;;;;;;;4983250;28;20077;-64
2021/11/30 13:40:49;;;;;;;1.25;1.02;;;;;;;;;;4982335;28;20051;-64
2021/11/30 13:43:26;;;;;;;1.10;1.00;;;;;;;;;;4981871;28;20046;-66
2021/11/30 13:46:02;;;;;;;0.77;0.50;;;;;;;;;;4982158;28;20046;-66
2021/11/30 13:48:45;;;;;;;1.00;0.52;;;;;;;;;;4985615;28;20408;-67
2021/11/30 13:51:13;;;;;;;;;;;;;;;;;;5019858;28;20088;-70
2021/11/30 13:53:48;;;;;;;0.50;0.40;;;;;;;;;;5018670;28;19968;-67
2021/11/30 13:56:44;;;;;;;1.13;0.65;;;;;;;;;;5023271;28;20511;-68
2021/11/30 13:59:14;;;;;;;0.55;0.55;;;;;;;;;;5023438;28;20049;-67
2021/11/30 14:01:59;;;;;;;1.17;0.50;;;;;;;;;;5023046;28;20081;-69
2021/11/30 14:04:27;;;;;;;0.70;0.70;;;;;;;;;;5017182;28;20053;-70
2021/11/30 14:07:01;;;;;;;0.63;0.60;;;;;;;;;;5019170;28;20082;-69
2021/11/30 14:09:31;;;;;;;5.47;0.88;;;;;;;;;;5018469;28;20053;-64
2021/11/30 14:12:07;;;;;;;0.52;0.52;;;;;;;;;;5022877;28;20123;-69
2021/11/30 14:14:40;;;;;;;0.82;0.80;;;;;;;;;;5026250;28;20412;-67
2021/11/30 14:17:07;;;;;;;0.50;0.50;;;;;;;;;;5017440;28;20104;-66
2021/11/30 14:19:41;;;;;;;1.30;0.55;;;;;;;;;;5023137;28;20488;-67
2021/11/30 14:22:09;;;;;;;0.85;0.40;;;;;;;;;;5021263;28;20123;-63
2021/11/30 14:24:54;;;;;;;1.23;0.80;;;;;;;;;;5018481;28;20460;-65
2021/11/30 14:27:22;;;;;;;1.73;1.00;;;;;;;;;;5021932;28;20378;-64
2021/11/30 14:29:49;;;;;;;1.17;0.50;;;;;;;;;;5032675;28;20057;-64
2021/11/30 14:32:26;;;;;;;0.70;0.52;;;;;;;;;;5017519;28;20459;-63
2021/11/30 14:35:04;;;;;;;0.50;0.50;;;;;;;;;;5019635;28;20057;-63
2021/11/30 14:37:50;;;;;;;1.02;0.77;;;;;;;;;;5017634;28;20390;-63
2021/11/30 14:40:19;;;;;;;5.25;3.15;;;;;;;;;;5017810;28;20053;-63
2021/11/30 14:42:56;;;;;;;2.88;2.28;;;;;;;;;;5022905;28;20045;-63
2021/11/30 14:45:34;;;;;;;2.05;1.70;;;;;;;;;;5017623;28;20100;-63
2021/11/30 14:48:07;;;;;;;2.90;1.58;;;;;;;;;;5033687;28;20041;-63
2021/11/30 14:50:57;;;;;;;2.07;1.87;;;;;;;;;;5034432;28;20106;-63
2021/11/30 14:53:31;;;;;;;6.75;2.25;;;;;;;;;;5020115;28;20103;-64
2021/11/30 14:56:01;;;;;;;2.05;1.60;;;;;;;;;;5018105;28;20057;-63
2021/11/30 14:58:31;;;;;;;5.05;1.73;;;;;;;;;;5018046;28;20050;-64
2021/11/30 15:01:13;;;;;;;3.42;2.03;;;;;;;;;;5020800;28;20049;-64
2021/11/30 15:03:46;;;;;;;3.08;1.30;;;;;;;;;;5017525;28;20045;-63
2021/11/30 15:06:18;;;;;;;2.85;1.20;;;;;;;;;;5018168;28;20050;-63
2021/11/30 15:08:47;;;;;;;1.75;0.73;;;;;;;;;;5022761;28;20049;-63
2021/11/30 15:11:13;;;;;;;3.65;1.95;;;;;;;;;;5020513;28;20389;-63
2021/11/30 15:13:46;;;;;;;1.90;1.15;;;;;;;;;;5016935;28;20098;-63